sensor_id;sensor_type;location;lat;lon;timestamp;P1;durP1;ratioP1;P2;durP2;ratioP2
74833;SDS011;63361;52.384;20.930;2023-02-25T00:02:08;35.63;;;15.83;;
74833;SDS011;63361;52.384;20.930;2023-02-25T00:04:33;39.03;;;16.02;;
74833;SDS011;63361;52.384;20.930;2023-02-25T00:06:59;37.33;;;16.33;;
74833;SDS011;63361;52.384;20.930;2023-02-25T00:09:25;40.10;;;17.40;;
74833;SDS011;63361;52.384;20.930;2023-02-25T00:11:51;38.73;;;17.23;;
74833;SDS011;63361;52.384;20.930;2023-02-25T00:14:17;34.58;;;16.05;;
74833;SDS011;63361;52.384;20.930;2023-02-25T00:16:42;39.27;;;16.80;;
74833;SDS011;63361;52.384;20.930;2023-02-25T00:19:07;34.17;;;15.77;;
74833;SDS011;63361;52.384;20.930;2023-02-25T00:21:34;36.88;;;16.77;;
74833;SDS011;63361;52.384;20.930;2023-02-25T00:24:00;38.63;;;16.70;;
74833;SDS011;63361;52.384;20.930;2023-02-25T00:26:25;37.37;;;16.40;;
74833;SDS011;63361;52.384;20.930;2023-02-25T00:28:50;32.40;;;15.00;;
74833;SDS011;63361;52.384;20.930;2023-02-25T00:31:18;35.90;;;16.33;;
74833;SDS011;63361;52.384;20.930;2023-02-25T00:33:45;32.23;;;16.13;;
74833;SDS011;63361;52.384;20.930;2023-02-25T00:36:12;36.72;;;15.05;;
74833;SDS011;63361;52.384;20.930;2023-02-25T00:38:43;35.95;;;16.73;;
74833;SDS011;63361;52.384;20.930;2023-02-25T00:41:12;36.85;;;16.08;;
74833;SDS011;63361;52.384;20.930;2023-02-25T00:43:40;34.03;;;15.13;;
74833;SDS011;63361;52.384;20.930;2023-02-25T00:46:07;33.90;;;15.30;;
74833;SDS011;63361;52.384;20.930;2023-02-25T00:48:33;39.60;;;17.58;;
74833;SDS011;63361;52.384;20.930;2023-02-25T00:51:10;29.40;;;15.45;;
74833;SDS011;63361;52.384;20.930;2023-02-25T00:53:37;32.72;;;15.20;;
74833;SDS011;63361;52.384;20.930;2023-02-25T00:56:04;46.58;;;18.15;;
74833;SDS011;63361;52.384;20.930;2023-02-25T00:58:33;93.60;;;31.33;;
74833;SDS011;63361;52.384;20.930;2023-02-25T01:01:00;68.85;;;28.00;;
74833;SDS011;63361;52.384;20.930;2023-02-25T01:03:26;41.17;;;18.67;;
74833;SDS011;63361;52.384;20.930;2023-02-25T01:05:51;56.47;;;26.77;;
74833;SDS011;63361;52.384;20.930;2023-02-25T01:08:17;65.87;;;28.60;;
74833;SDS011;63361;52.384;20.930;2023-02-25T01:10:44;65.60;;;27.75;;
74833;SDS011;63361;52.384;20.930;2023-02-25T01:13:12;66.53;;;28.40;;
74833;SDS011;63361;52.384;20.930;2023-02-25T01:15:38;73.90;;;29.63;;
74833;SDS011;63361;52.384;20.930;2023-02-25T01:18:03;56.27;;;26.13;;
74833;SDS011;63361;52.384;20.930;2023-02-25T01:20:29;56.33;;;24.70;;
74833;SDS011;63361;52.384;20.930;2023-02-25T01:22:55;53.03;;;23.00;;
74833;SDS011;63361;52.384;20.930;2023-02-25T01:25:21;36.35;;;16.58;;
74833;SDS011;63361;52.384;20.930;2023-02-25T01:27:46;36.87;;;16.83;;
74833;SDS011;63361;52.384;20.930;2023-02-25T01:30:12;41.72;;;19.17;;
74833;SDS011;63361;52.384;20.930;2023-02-25T01:32:37;37.63;;;17.20;;
74833;SDS011;63361;52.384;20.930;2023-02-25T01:35:03;41.00;;;16.80;;
74833;SDS011;63361;52.384;20.930;2023-02-25T01:37:29;33.92;;;16.02;;
74833;SDS011;63361;52.384;20.930;2023-02-25T01:39:55;38.60;;;15.97;;
74833;SDS011;63361;52.384;20.930;2023-02-25T01:42:20;37.08;;;16.50;;
74833;SDS011;63361;52.384;20.930;2023-02-25T01:47:42;34.33;;;15.25;;
74833;SDS011;63361;52.384;20.930;2023-02-25T01:50:11;33.50;;;14.93;;
74833;SDS011;63361;52.384;20.930;2023-02-25T01:52:36;40.40;;;16.07;;
74833;SDS011;63361;52.384;20.930;2023-02-25T01:55:05;35.92;;;15.20;;
74833;SDS011;63361;52.384;20.930;2023-02-25T01:57:30;34.50;;;14.23;;
74833;SDS011;63361;52.384;20.930;2023-02-25T01:59:56;38.38;;;14.80;;
74833;SDS011;63361;52.384;20.930;2023-02-25T02:02:22;33.90;;;14.03;;
74833;SDS011;63361;52.384;20.930;2023-02-25T02:04:50;33.05;;;13.85;;
74833;SDS011;63361;52.384;20.930;2023-02-25T02:07:18;32.40;;;13.70;;
74833;SDS011;63361;52.384;20.930;2023-02-25T02:09:45;36.92;;;13.57;;
74833;SDS011;63361;52.384;20.930;2023-02-25T02:12:20;33.70;;;13.37;;
74833;SDS011;63361;52.384;20.930;2023-02-25T02:14:48;34.50;;;13.05;;
74833;SDS011;63361;52.384;20.930;2023-02-25T02:19:55;28.83;;;12.50;;
74833;SDS011;63361;52.384;20.930;2023-02-25T02:34:14;27.45;;;11.70;;
74833;SDS011;63361;52.384;20.930;2023-02-25T02:42:41;31.35;;;14.15;;
74833;SDS011;63361;52.384;20.930;2023-02-25T02:45:17;28.25;;;12.77;;
74833;SDS011;63361;52.384;20.930;2023-02-25T02:47:56;37.20;;;13.57;;
74833;SDS011;63361;52.384;20.930;2023-02-25T02:50:44;30.67;;;13.63;;
74833;SDS011;63361;52.384;20.930;2023-02-25T02:56:21;35.60;;;14.25;;
74833;SDS011;63361;52.384;20.930;2023-02-25T02:58:51;34.53;;;14.75;;
74833;SDS011;63361;52.384;20.930;2023-02-25T03:01:28;33.70;;;14.20;;
74833;SDS011;63361;52.384;20.930;2023-02-25T03:03:59;29.65;;;13.75;;
74833;SDS011;63361;52.384;20.930;2023-02-25T03:06:33;35.13;;;13.97;;
74833;SDS011;63361;52.384;20.930;2023-02-25T03:09:25;27.88;;;13.43;;
74833;SDS011;63361;52.384;20.930;2023-02-25T03:11:54;43.58;;;14.55;;
74833;SDS011;63361;52.384;20.930;2023-02-25T03:14:19;38.63;;;15.23;;
74833;SDS011;63361;52.384;20.930;2023-02-25T03:16:48;35.23;;;13.83;;
74833;SDS011;63361;52.384;20.930;2023-02-25T03:19:26;30.25;;;13.57;;
74833;SDS011;63361;52.384;20.930;2023-02-25T03:22:07;43.05;;;14.27;;
74833;SDS011;63361;52.384;20.930;2023-02-25T03:27:34;31.23;;;13.50;;
74833;SDS011;63361;52.384;20.930;2023-02-25T03:30:05;27.58;;;13.02;;
74833;SDS011;63361;52.384;20.930;2023-02-25T03:32:36;29.77;;;13.27;;
74833;SDS011;63361;52.384;20.930;2023-02-25T03:35:06;29.73;;;13.20;;
74833;SDS011;63361;52.384;20.930;2023-02-25T03:37:34;29.50;;;13.07;;
74833;SDS011;63361;52.384;20.930;2023-02-25T03:40:03;26.63;;;12.07;;
74833;SDS011;63361;52.384;20.930;2023-02-25T03:42:38;28.20;;;11.43;;
74833;SDS011;63361;52.384;20.930;2023-02-25T03:45:07;23.33;;;11.32;;
74833;SDS011;63361;52.384;20.930;2023-02-25T03:47:36;22.95;;;11.82;;
74833;SDS011;63361;52.384;20.930;2023-02-25T03:50:05;27.90;;;12.30;;
74833;SDS011;63361;52.384;20.930;2023-02-25T03:52:34;38.03;;;11.80;;
74833;SDS011;63361;52.384;20.930;2023-02-25T03:55:00;23.38;;;10.52;;
74833;SDS011;63361;52.384;20.930;2023-02-25T03:57:33;24.45;;;11.20;;
74833;SDS011;63361;52.384;20.930;2023-02-25T04:00:01;22.65;;;9.60;;
74833;SDS011;63361;52.384;20.930;2023-02-25T04:02:39;26.45;;;10.57;;
74833;SDS011;63361;52.384;20.930;2023-02-25T04:05:05;27.93;;;10.00;;
74833;SDS011;63361;52.384;20.930;2023-02-25T04:07:30;21.17;;;10.00;;
74833;SDS011;63361;52.384;20.930;2023-02-25T04:09:55;27.70;;;9.68;;
74833;SDS011;63361;52.384;20.930;2023-02-25T04:12:21;19.73;;;8.40;;
74833;SDS011;63361;52.384;20.930;2023-02-25T04:14:46;20.30;;;9.50;;
74833;SDS011;63361;52.384;20.930;2023-02-25T04:17:11;19.87;;;8.77;;
74833;SDS011;63361;52.384;20.930;2023-02-25T04:19:37;16.27;;;8.37;;
74833;SDS011;63361;52.384;20.930;2023-02-25T04:22:02;18.60;;;8.73;;
74833;SDS011;63361;52.384;20.930;2023-02-25T04:24:29;17.45;;;8.45;;
74833;SDS011;63361;52.384;20.930;2023-02-25T04:26:55;19.93;;;8.43;;
74833;SDS011;63361;52.384;20.930;2023-02-25T04:29:23;22.92;;;9.25;;
74833;SDS011;63361;52.384;20.930;2023-02-25T04:31:49;20.42;;;8.68;;
74833;SDS011;63361;52.384;20.930;2023-02-25T04:34:15;18.60;;;8.25;;
74833;SDS011;63361;52.384;20.930;2023-02-25T04:36:40;19.80;;;8.63;;
74833;SDS011;63361;52.384;20.930;2023-02-25T04:39:09;23.25;;;9.43;;
74833;SDS011;63361;52.384;20.930;2023-02-25T04:41:35;20.17;;;9.70;;
74833;SDS011;63361;52.384;20.930;2023-02-25T04:44:00;36.05;;;10.13;;
74833;SDS011;63361;52.384;20.930;2023-02-25T04:46:30;21.17;;;10.00;;
74833;SDS011;63361;52.384;20.930;2023-02-25T04:48:56;29.17;;;10.73;;
74833;SDS011;63361;52.384;20.930;2023-02-25T04:51:22;23.83;;;8.55;;
74833;SDS011;63361;52.384;20.930;2023-02-25T04:53:47;24.27;;;10.17;;
74833;SDS011;63361;52.384;20.930;2023-02-25T04:56:13;20.00;;;8.23;;
74833;SDS011;63361;52.384;20.930;2023-02-25T04:58:38;20.30;;;8.48;;
74833;SDS011;63361;52.384;20.930;2023-02-25T05:01:05;20.30;;;9.07;;
74833;SDS011;63361;52.384;20.930;2023-02-25T05:03:32;19.55;;;8.75;;
74833;SDS011;63361;52.384;20.930;2023-02-25T05:05:57;20.00;;;8.77;;
74833;SDS011;63361;52.384;20.930;2023-02-25T05:08:23;15.73;;;8.10;;
74833;SDS011;63361;52.384;20.930;2023-02-25T05:10:48;20.57;;;8.53;;
74833;SDS011;63361;52.384;20.930;2023-02-25T05:13:14;19.30;;;8.37;;
74833;SDS011;63361;52.384;20.930;2023-02-25T05:15:40;23.60;;;9.38;;
74833;SDS011;63361;52.384;20.930;2023-02-25T05:18:05;18.60;;;8.57;;
74833;SDS011;63361;52.384;20.930;2023-02-25T05:20:31;50.23;;;9.23;;
74833;SDS011;63361;52.384;20.930;2023-02-25T05:22:56;20.63;;;8.55;;
74833;SDS011;63361;52.384;20.930;2023-02-25T05:25:21;20.17;;;8.90;;
74833;SDS011;63361;52.384;20.930;2023-02-25T05:27:47;18.23;;;8.10;;
74833;SDS011;63361;52.384;20.930;2023-02-25T05:30:12;20.20;;;8.30;;
74833;SDS011;63361;52.384;20.930;2023-02-25T05:32:38;19.70;;;8.23;;
74833;SDS011;63361;52.384;20.930;2023-02-25T05:35:04;22.97;;;10.57;;
74833;SDS011;63361;52.384;20.930;2023-02-25T05:37:32;23.23;;;10.63;;
74833;SDS011;63361;52.384;20.930;2023-02-25T05:39:58;20.53;;;9.63;;
74833;SDS011;63361;52.384;20.930;2023-02-25T05:42:23;18.33;;;8.47;;
74833;SDS011;63361;52.384;20.930;2023-02-25T05:44:49;19.80;;;9.00;;
74833;SDS011;63361;52.384;20.930;2023-02-25T05:47:14;20.65;;;8.70;;
74833;SDS011;63361;52.384;20.930;2023-02-25T05:49:40;20.90;;;9.30;;
74833;SDS011;63361;52.384;20.930;2023-02-25T05:52:06;21.77;;;9.98;;
74833;SDS011;63361;52.384;20.930;2023-02-25T05:54:32;22.60;;;11.30;;
74833;SDS011;63361;52.384;20.930;2023-02-25T05:56:57;20.48;;;9.35;;
74833;SDS011;63361;52.384;20.930;2023-02-25T05:59:23;20.50;;;9.10;;
74833;SDS011;63361;52.384;20.930;2023-02-25T06:01:48;20.43;;;9.70;;
74833;SDS011;63361;52.384;20.930;2023-02-25T06:04:13;18.50;;;8.83;;
74833;SDS011;63361;52.384;20.930;2023-02-25T06:06:39;18.47;;;9.00;;
74833;SDS011;63361;52.384;20.930;2023-02-25T06:09:05;21.85;;;10.30;;
74833;SDS011;63361;52.384;20.930;2023-02-25T06:11:31;19.20;;;8.98;;
74833;SDS011;63361;52.384;20.930;2023-02-25T06:13:57;19.87;;;9.40;;
74833;SDS011;63361;52.384;20.930;2023-02-25T06:16:23;19.35;;;8.93;;
74833;SDS011;63361;52.384;20.930;2023-02-25T06:18:49;17.20;;;8.30;;
74833;SDS011;63361;52.384;20.930;2023-02-25T06:21:16;21.58;;;10.43;;
74833;SDS011;63361;52.384;20.930;2023-02-25T06:23:42;20.08;;;9.73;;
74833;SDS011;63361;52.384;20.930;2023-02-25T06:26:09;19.05;;;9.60;;
74833;SDS011;63361;52.384;20.930;2023-02-25T06:28:36;19.67;;;9.73;;
74833;SDS011;63361;52.384;20.930;2023-02-25T06:31:05;20.40;;;9.57;;
74833;SDS011;63361;52.384;20.930;2023-02-25T06:33:32;23.88;;;10.48;;
74833;SDS011;63361;52.384;20.930;2023-02-25T06:35:57;24.77;;;10.57;;
74833;SDS011;63361;52.384;20.930;2023-02-25T06:38:23;24.90;;;10.47;;
74833;SDS011;63361;52.384;20.930;2023-02-25T06:40:48;25.25;;;10.95;;
74833;SDS011;63361;52.384;20.930;2023-02-25T06:43:14;26.37;;;10.77;;
74833;SDS011;63361;52.384;20.930;2023-02-25T06:45:40;35.20;;;11.13;;
74833;SDS011;63361;52.384;20.930;2023-02-25T06:48:05;29.70;;;13.07;;
74833;SDS011;63361;52.384;20.930;2023-02-25T06:50:31;26.67;;;12.70;;
74833;SDS011;63361;52.384;20.930;2023-02-25T06:52:57;29.02;;;13.45;;
74833;SDS011;63361;52.384;20.930;2023-02-25T06:55:23;29.08;;;13.07;;
74833;SDS011;63361;52.384;20.930;2023-02-25T06:57:48;25.93;;;12.50;;
74833;SDS011;63361;52.384;20.930;2023-02-25T07:00:14;26.37;;;13.23;;
74833;SDS011;63361;52.384;20.930;2023-02-25T07:02:40;26.42;;;12.30;;
74833;SDS011;63361;52.384;20.930;2023-02-25T07:05:06;27.42;;;12.30;;
74833;SDS011;63361;52.384;20.930;2023-02-25T07:07:31;24.77;;;12.00;;
74833;SDS011;63361;52.384;20.930;2023-02-25T07:09:56;24.23;;;12.40;;
74833;SDS011;63361;52.384;20.930;2023-02-25T07:12:22;31.07;;;13.17;;
74833;SDS011;63361;52.384;20.930;2023-02-25T07:14:48;26.90;;;12.10;;
74833;SDS011;63361;52.384;20.930;2023-02-25T07:17:13;28.73;;;12.90;;
74833;SDS011;63361;52.384;20.930;2023-02-25T07:19:39;29.73;;;14.90;;
74833;SDS011;63361;52.384;20.930;2023-02-25T07:22:04;36.57;;;17.93;;
74833;SDS011;63361;52.384;20.930;2023-02-25T07:24:30;30.67;;;13.53;;
74833;SDS011;63361;52.384;20.930;2023-02-25T07:26:55;38.95;;;14.10;;
74833;SDS011;63361;52.384;20.930;2023-02-25T07:29:21;32.10;;;13.03;;
74833;SDS011;63361;52.384;20.930;2023-02-25T07:31:46;30.37;;;13.43;;
74833;SDS011;63361;52.384;20.930;2023-02-25T07:34:12;32.70;;;13.68;;
74833;SDS011;63361;52.384;20.930;2023-02-25T07:36:38;28.08;;;12.48;;
74833;SDS011;63361;52.384;20.930;2023-02-25T07:39:04;28.67;;;11.77;;
74833;SDS011;63361;52.384;20.930;2023-02-25T07:41:32;30.45;;;12.35;;
74833;SDS011;63361;52.384;20.930;2023-02-25T07:43:58;27.52;;;12.82;;
74833;SDS011;63361;52.384;20.930;2023-02-25T07:46:24;34.20;;;13.13;;
74833;SDS011;63361;52.384;20.930;2023-02-25T07:48:50;27.50;;;12.18;;
74833;SDS011;63361;52.384;20.930;2023-02-25T07:51:16;31.10;;;12.57;;
74833;SDS011;63361;52.384;20.930;2023-02-25T07:53:44;27.38;;;11.65;;
74833;SDS011;63361;52.384;20.930;2023-02-25T07:56:11;24.67;;;11.30;;
74833;SDS011;63361;52.384;20.930;2023-02-25T07:58:37;30.17;;;13.10;;
74833;SDS011;63361;52.384;20.930;2023-02-25T08:01:06;106.97;;;39.03;;
74833;SDS011;63361;52.384;20.930;2023-02-25T08:03:33;55.40;;;21.98;;
74833;SDS011;63361;52.384;20.930;2023-02-25T08:05:58;106.03;;;38.40;;
74833;SDS011;63361;52.384;20.930;2023-02-25T08:08:26;46.73;;;21.30;;
74833;SDS011;63361;52.384;20.930;2023-02-25T08:10:52;59.28;;;26.27;;
74833;SDS011;63361;52.384;20.930;2023-02-25T08:13:17;40.30;;;21.17;;
74833;SDS011;63361;52.384;20.930;2023-02-25T08:15:43;35.70;;;17.38;;
74833;SDS011;63361;52.384;20.930;2023-02-25T08:18:09;33.70;;;16.63;;
74833;SDS011;63361;52.384;20.930;2023-02-25T08:20:35;33.47;;;16.98;;
74833;SDS011;63361;52.384;20.930;2023-02-25T08:23:01;31.67;;;14.13;;
74833;SDS011;63361;52.384;20.930;2023-02-25T08:25:27;30.87;;;15.00;;
74833;SDS011;63361;52.384;20.930;2023-02-25T08:27:52;32.72;;;17.40;;
74833;SDS011;63361;52.384;20.930;2023-02-25T08:30:18;32.83;;;16.83;;
74833;SDS011;63361;52.384;20.930;2023-02-25T08:32:44;25.07;;;13.47;;
74833;SDS011;63361;52.384;20.930;2023-02-25T08:35:11;27.48;;;13.98;;
74833;SDS011;63361;52.384;20.930;2023-02-25T08:37:36;26.40;;;13.37;;
74833;SDS011;63361;52.384;20.930;2023-02-25T08:40:01;27.42;;;13.23;;
74833;SDS011;63361;52.384;20.930;2023-02-25T08:42:31;28.73;;;14.80;;
74833;SDS011;63361;52.384;20.930;2023-02-25T08:44:56;30.13;;;16.37;;
74833;SDS011;63361;52.384;20.930;2023-02-25T08:47:22;30.52;;;15.63;;
74833;SDS011;63361;52.384;20.930;2023-02-25T08:49:47;28.20;;;14.33;;
74833;SDS011;63361;52.384;20.930;2023-02-25T08:52:13;33.47;;;15.07;;
74833;SDS011;63361;52.384;20.930;2023-02-25T08:54:38;33.50;;;15.53;;
74833;SDS011;63361;52.384;20.930;2023-02-25T08:57:05;31.27;;;15.10;;
74833;SDS011;63361;52.384;20.930;2023-02-25T08:59:30;26.93;;;14.23;;
74833;SDS011;63361;52.384;20.930;2023-02-25T09:02:00;28.58;;;15.82;;
74833;SDS011;63361;52.384;20.930;2023-02-25T09:04:27;36.78;;;17.17;;
74833;SDS011;63361;52.384;20.930;2023-02-25T09:06:52;28.93;;;15.70;;
74833;SDS011;63361;52.384;20.930;2023-02-25T09:09:18;24.35;;;12.15;;
74833;SDS011;63361;52.384;20.930;2023-02-25T09:11:46;23.40;;;11.70;;
74833;SDS011;63361;52.384;20.930;2023-02-25T09:14:13;20.27;;;10.25;;
74833;SDS011;63361;52.384;20.930;2023-02-25T09:16:39;24.00;;;10.85;;
74833;SDS011;63361;52.384;20.930;2023-02-25T09:19:05;22.53;;;11.17;;
74833;SDS011;63361;52.384;20.930;2023-02-25T09:21:30;24.50;;;11.50;;
74833;SDS011;63361;52.384;20.930;2023-02-25T09:23:55;23.50;;;12.33;;
74833;SDS011;63361;52.384;20.930;2023-02-25T09:26:22;24.65;;;11.52;;
74833;SDS011;63361;52.384;20.930;2023-02-25T09:28:47;23.57;;;12.07;;
74833;SDS011;63361;52.384;20.930;2023-02-25T09:31:13;20.73;;;10.33;;
74833;SDS011;63361;52.384;20.930;2023-02-25T09:33:39;22.70;;;11.45;;
74833;SDS011;63361;52.384;20.930;2023-02-25T09:36:10;26.05;;;11.90;;
74833;SDS011;63361;52.384;20.930;2023-02-25T09:38:38;25.05;;;11.90;;
74833;SDS011;63361;52.384;20.930;2023-02-25T09:43:52;23.17;;;10.93;;
74833;SDS011;63361;52.384;20.930;2023-02-25T09:46:36;24.65;;;12.30;;
74833;SDS011;63361;52.384;20.930;2023-02-25T09:51:44;19.63;;;10.95;;
74833;SDS011;63361;52.384;20.930;2023-02-25T09:54:33;20.10;;;10.20;;
74833;SDS011;63361;52.384;20.930;2023-02-25T09:57:03;16.27;;;8.93;;
74833;SDS011;63361;52.384;20.930;2023-02-25T09:59:31;14.32;;;7.85;;
74833;SDS011;63361;52.384;20.930;2023-02-25T10:04:53;19.80;;;9.68;;
74833;SDS011;63361;52.384;20.930;2023-02-25T10:07:25;17.58;;;9.18;;
74833;SDS011;63361;52.384;20.930;2023-02-25T10:10:01;16.35;;;9.38;;
74833;SDS011;63361;52.384;20.930;2023-02-25T10:12:51;13.63;;;6.88;;
74833;SDS011;63361;52.384;20.930;2023-02-25T10:18:24;15.38;;;8.40;;
74833;SDS011;63361;52.384;20.930;2023-02-25T10:21:19;17.17;;;8.55;;
74833;SDS011;63361;52.384;20.930;2023-02-25T10:26:34;14.95;;;8.15;;
74833;SDS011;63361;52.384;20.930;2023-02-25T10:29:04;12.67;;;7.93;;
74833;SDS011;63361;52.384;20.930;2023-02-25T10:31:31;14.32;;;8.07;;
74833;SDS011;63361;52.384;20.930;2023-02-25T10:33:58;14.30;;;8.97;;
74833;SDS011;63361;52.384;20.930;2023-02-25T10:36:37;13.38;;;8.13;;
74833;SDS011;63361;52.384;20.930;2023-02-25T10:39:07;18.25;;;9.57;;
74833;SDS011;63361;52.384;20.930;2023-02-25T10:41:34;15.80;;;8.48;;
74833;SDS011;63361;52.384;20.930;2023-02-25T10:44:00;16.33;;;8.80;;
74833;SDS011;63361;52.384;20.930;2023-02-25T10:46:29;14.27;;;8.20;;
74833;SDS011;63361;52.384;20.930;2023-02-25T10:49:02;15.32;;;8.95;;
74833;SDS011;63361;52.384;20.930;2023-02-25T10:51:46;15.55;;;8.60;;
74833;SDS011;63361;52.384;20.930;2023-02-25T10:54:25;19.83;;;9.32;;
74833;SDS011;63361;52.384;20.930;2023-02-25T10:56:50;29.93;;;11.20;;
74833;SDS011;63361;52.384;20.930;2023-02-25T11:01:58;6.60;;;2.88;;
74833;SDS011;63361;52.384;20.930;2023-02-25T11:04:32;10.90;;;4.13;;
74833;SDS011;63361;52.384;20.930;2023-02-25T11:07:01;11.02;;;4.60;;
74833;SDS011;63361;52.384;20.930;2023-02-25T11:09:48;10.07;;;4.05;;
74833;SDS011;63361;52.384;20.930;2023-02-25T11:12:30;9.03;;;3.93;;
74833;SDS011;63361;52.384;20.930;2023-02-25T11:15:16;10.93;;;4.93;;
74833;SDS011;63361;52.384;20.930;2023-02-25T11:20:47;11.40;;;5.22;;
74833;SDS011;63361;52.384;20.930;2023-02-25T11:23:19;16.90;;;7.68;;
74833;SDS011;63361;52.384;20.930;2023-02-25T11:25:47;28.17;;;11.67;;
74833;SDS011;63361;52.384;20.930;2023-02-25T11:28:48;20.88;;;8.25;;
74833;SDS011;63361;52.384;20.930;2023-02-25T11:31:16;42.97;;;16.08;;
74833;SDS011;63361;52.384;20.930;2023-02-25T11:33:56;44.33;;;15.40;;
74833;SDS011;63361;52.384;20.930;2023-02-25T11:36:38;36.70;;;12.48;;
74833;SDS011;63361;52.384;20.930;2023-02-25T11:39:17;27.60;;;10.00;;
74833;SDS011;63361;52.384;20.930;2023-02-25T11:41:46;22.42;;;9.68;;
74833;SDS011;63361;52.384;20.930;2023-02-25T11:44:21;17.98;;;9.02;;
74833;SDS011;63361;52.384;20.930;2023-02-25T11:47:13;14.93;;;7.30;;
74833;SDS011;63361;52.384;20.930;2023-02-25T11:55:09;11.98;;;6.78;;
74833;SDS011;63361;52.384;20.930;2023-02-25T12:00:30;9.77;;;6.07;;
74833;SDS011;63361;52.384;20.930;2023-02-25T12:03:13;13.57;;;5.68;;
74833;SDS011;63361;52.384;20.930;2023-02-25T12:08:43;13.48;;;5.97;;
74833;SDS011;63361;52.384;20.930;2023-02-25T12:11:27;9.43;;;5.00;;
74833;SDS011;63361;52.384;20.930;2023-02-25T12:16:55;12.20;;;5.70;;
74833;SDS011;63361;52.384;20.930;2023-02-25T12:25:19;8.52;;;5.10;;
74833;SDS011;63361;52.384;20.930;2023-02-25T12:31:28;9.00;;;5.38;;
74833;SDS011;63361;52.384;20.930;2023-02-25T12:39:25;6.10;;;3.20;;
74833;SDS011;63361;52.384;20.930;2023-02-25T12:53:20;5.45;;;2.53;;
74833;SDS011;63361;52.384;20.930;2023-02-25T12:56:11;6.23;;;2.07;;
74833;SDS011;63361;52.384;20.930;2023-02-25T13:02:10;4.50;;;2.20;;
74833;SDS011;63361;52.384;20.930;2023-02-25T13:24:23;7.40;;;2.97;;
74833;SDS011;63361;52.384;20.930;2023-02-25T13:27:01;8.50;;;3.30;;
74833;SDS011;63361;52.384;20.930;2023-02-25T13:32:55;7.18;;;3.42;;
74833;SDS011;63361;52.384;20.930;2023-02-25T13:41:06;8.52;;;4.13;;
74833;SDS011;63361;52.384;20.930;2023-02-25T13:46:28;6.78;;;2.40;;
74833;SDS011;63361;52.384;20.930;2023-02-25T14:03:37;4.57;;;1.63;;
74833;SDS011;63361;52.384;20.930;2023-02-25T14:11:48;7.68;;;2.28;;
74833;SDS011;63361;52.384;20.930;2023-02-25T14:20:04;7.17;;;2.57;;
74833;SDS011;63361;52.384;20.930;2023-02-25T14:22:50;5.65;;;2.33;;
74833;SDS011;63361;52.384;20.930;2023-02-25T14:25:29;5.22;;;2.38;;
74833;SDS011;63361;52.384;20.930;2023-02-25T14:30:57;9.20;;;3.47;;
74833;SDS011;63361;52.384;20.930;2023-02-25T14:33:34;8.00;;;3.07;;
74833;SDS011;63361;52.384;20.930;2023-02-25T14:47:18;8.93;;;4.50;;
74833;SDS011;63361;52.384;20.930;2023-02-25T14:49:59;9.20;;;4.53;;
74833;SDS011;63361;52.384;20.930;2023-02-25T15:04:04;11.48;;;4.53;;
74833;SDS011;63361;52.384;20.930;2023-02-25T15:07:01;10.13;;;5.13;;
74833;SDS011;63361;52.384;20.930;2023-02-25T15:09:36;12.15;;;5.80;;
74833;SDS011;63361;52.384;20.930;2023-02-25T15:20:43;30.48;;;6.85;;
74833;SDS011;63361;52.384;20.930;2023-02-25T15:23:09;15.25;;;7.45;;
74833;SDS011;63361;52.384;20.930;2023-02-25T15:48:44;12.87;;;6.03;;
74833;SDS011;63361;52.384;20.930;2023-02-25T15:51:43;10.40;;;4.20;;
74833;SDS011;63361;52.384;20.930;2023-02-25T15:57:39;9.45;;;4.40;;
74833;SDS011;63361;52.384;20.930;2023-02-25T15:59:59;11.73;;;5.10;;
74833;SDS011;63361;52.384;20.930;2023-02-25T16:07:43;10.30;;;4.77;;
74833;SDS011;63361;52.384;20.930;2023-02-25T16:12:43;13.13;;;5.57;;
74833;SDS011;63361;52.384;20.930;2023-02-25T16:15:20;13.80;;;5.63;;
74833;SDS011;63361;52.384;20.930;2023-02-25T16:17:48;13.90;;;6.82;;
74833;SDS011;63361;52.384;20.930;2023-02-25T16:22:58;17.55;;;7.88;;
74833;SDS011;63361;52.384;20.930;2023-02-25T16:28:22;16.37;;;8.00;;
74833;SDS011;63361;52.384;20.930;2023-02-25T16:34:04;35.55;;;10.55;;
74833;SDS011;63361;52.384;20.930;2023-02-25T16:39:28;27.98;;;13.77;;
74833;SDS011;63361;52.384;20.930;2023-02-25T16:41:59;23.63;;;12.23;;
74833;SDS011;63361;52.384;20.930;2023-02-25T16:44:27;24.25;;;10.85;;
74833;SDS011;63361;52.384;20.930;2023-02-25T16:46:57;16.77;;;8.73;;
74833;SDS011;63361;52.384;20.930;2023-02-25T16:49:30;19.58;;;9.82;;
74833;SDS011;63361;52.384;20.930;2023-02-25T16:52:00;18.53;;;9.17;;
74833;SDS011;63361;52.384;20.930;2023-02-25T16:54:29;19.17;;;9.32;;
74833;SDS011;63361;52.384;20.930;2023-02-25T16:56:58;17.17;;;8.32;;
74833;SDS011;63361;52.384;20.930;2023-02-25T16:59:25;18.02;;;8.90;;
74833;SDS011;63361;52.384;20.930;2023-02-25T17:02:00;19.93;;;9.67;;
74833;SDS011;63361;52.384;20.930;2023-02-25T17:04:38;21.33;;;9.77;;
74833;SDS011;63361;52.384;20.930;2023-02-25T17:09:48;22.70;;;11.60;;
74833;SDS011;63361;52.384;20.930;2023-02-25T17:12:36;19.80;;;11.27;;
74833;SDS011;63361;52.384;20.930;2023-02-25T17:15:27;26.50;;;11.10;;
74833;SDS011;63361;52.384;20.930;2023-02-25T17:18:08;26.73;;;13.70;;
74833;SDS011;63361;52.384;20.930;2023-02-25T17:20:38;39.47;;;17.33;;
74833;SDS011;63361;52.384;20.930;2023-02-25T17:23:06;42.40;;;18.17;;
74833;SDS011;63361;52.384;20.930;2023-02-25T17:25:36;23.45;;;11.90;;
74833;SDS011;63361;52.384;20.930;2023-02-25T17:28:05;21.33;;;10.80;;
74833;SDS011;63361;52.384;20.930;2023-02-25T17:35:48;18.90;;;7.60;;
74833;SDS011;63361;52.384;20.930;2023-02-25T17:38:22;18.80;;;8.80;;
74833;SDS011;63361;52.384;20.930;2023-02-25T17:40:52;11.60;;;6.97;;
74833;SDS011;63361;52.384;20.930;2023-02-25T17:43:20;12.35;;;5.88;;
74833;SDS011;63361;52.384;20.930;2023-02-25T17:45:48;11.35;;;5.57;;
74833;SDS011;63361;52.384;20.930;2023-02-25T17:48:23;15.73;;;6.82;;
74833;SDS011;63361;52.384;20.930;2023-02-25T17:50:52;14.85;;;8.50;;
74833;SDS011;63361;52.384;20.930;2023-02-25T17:53:39;19.57;;;9.23;;
74833;SDS011;63361;52.384;20.930;2023-02-25T17:56:31;20.00;;;8.43;;
74833;SDS011;63361;52.384;20.930;2023-02-25T17:59:00;16.48;;;8.10;;
74833;SDS011;63361;52.384;20.930;2023-02-25T18:01:29;18.45;;;9.60;;
74833;SDS011;63361;52.384;20.930;2023-02-25T18:04:12;17.70;;;9.15;;
74833;SDS011;63361;52.384;20.930;2023-02-25T18:06:57;16.33;;;8.17;;
74833;SDS011;63361;52.384;20.930;2023-02-25T18:09:29;15.93;;;8.43;;
74833;SDS011;63361;52.384;20.930;2023-02-25T18:12:03;18.20;;;9.40;;
74833;SDS011;63361;52.384;20.930;2023-02-25T18:14:31;18.33;;;8.68;;
74833;SDS011;63361;52.384;20.930;2023-02-25T18:17:10;15.57;;;8.20;;
74833;SDS011;63361;52.384;20.930;2023-02-25T18:19:39;17.23;;;8.73;;
74833;SDS011;63361;52.384;20.930;2023-02-25T18:22:06;21.20;;;9.13;;
74833;SDS011;63361;52.384;20.930;2023-02-25T18:24:50;21.40;;;10.00;;
74833;SDS011;63361;52.384;20.930;2023-02-25T18:27:21;19.88;;;10.50;;
74833;SDS011;63361;52.384;20.930;2023-02-25T18:29:51;21.65;;;11.05;;